Time;durP1;ratioP1;P1;durP2;ratioP2;P2;SDS_P1;SDS_P2;PMS_P1;PMS_P2;Temp;Humidity;BMP_temperature;BMP_pressure;BME280_temperature;BME280_humidity;BME280_pressure;Samples;Min_cycle;Max_cycle;Signal;HPM_P1;HPM_P2
2022/12/10 00:01:23;;;;;;;49.05;5.97;;;17.20;99.90;;;;;;5049932;28;20180;-70
2022/12/10 00:03:49;;;;;;;46.05;4.57;;;17.20;99.90;;;;;;5049939;28;20461;-70
2022/12/10 00:06:24;;;;;;;43.78;5.63;;;17.20;99.90;;;;;;5050245;28;20029;-70
2022/12/10 00:08:50;;;;;;;43.28;5.30;;;17.20;99.90;;;;;;5051511;28;20083;-70
2022/12/10 00:11:18;;;;;;;37.42;5.10;;;17.20;99.90;;;;;;5051305;28;20029;-70
2022/12/10 00:13:47;;;;;;;33.45;4.90;;;17.10;99.90;;;;;;5051339;28;20318;-71
2022/12/10 00:16:15;;;;;;;43.35;4.88;;;17.10;99.90;;;;;;5050871;28;20115;-70
2022/12/10 00:18:41;;;;;;;47.53;5.53;;;17.10;99.90;;;;;;5051412;28;20021;-70
2022/12/10 00:21:10;;;;;;;42.30;5.30;;;17.10;99.90;;;;;;5066392;28;20036;-70
2022/12/10 00:23:37;;;;;;;51.22;5.80;;;17.10;99.90;;;;;;5050600;28;20041;-70
2022/12/10 00:26:04;;;;;;;;;;;17.10;99.90;;;;;;5051505;28;20432;-71
2022/12/10 00:28:32;;;;;;;59.05;5.68;;;17.10;99.90;;;;;;5051052;28;19912;-70
2022/12/10 00:31:12;;;;;;;44.17;5.57;;;17.10;99.90;;;;;;5049362;28;20048;-75
2022/12/10 00:33:41;;;;;;;39.70;5.65;;;17.10;99.90;;;;;;5050873;28;20029;-70
2022/12/10 00:36:10;;;;;;;34.58;5.07;;;17.10;99.90;;;;;;5051406;28;20029;-70
2022/12/10 00:38:36;;;;;;;44.85;5.32;;;17.10;99.90;;;;;;5050924;28;20021;-70
2022/12/10 00:41:03;;;;;;;;;;;17.20;99.90;;;;;;5051280;28;20531;-70
2022/12/10 00:43:29;;;;;;;35.92;5.30;;;17.20;99.90;;;;;;5050974;28;20332;-70
2022/12/10 00:45:57;;;;;;;45.88;5.18;;;17.20;99.90;;;;;;5051324;28;20072;-70
2022/12/10 00:48:24;;;;;;;50.03;5.57;;;17.20;99.90;;;;;;5050784;28;20418;-70
2022/12/10 00:51:08;;;;;;;39.60;5.30;;;17.20;99.90;;;;;;5051632;28;20406;-70
2022/12/10 00:53:36;;;;;;;39.60;5.30;;;17.20;99.90;;;;;;5054982;28;20163;-70
2022/12/10 00:56:06;;;;;;;40.78;5.35;;;17.20;99.90;;;;;;5069990;28;20086;-70
2022/12/10 00:58:34;;;;;;;31.85;4.78;;;17.20;99.90;;;;;;5054740;28;20029;-71
2022/12/10 01:01:15;;;;;;;40.58;5.70;;;17.20;99.90;;;;;;5055193;28;20029;-70
2022/12/10 01:03:42;;;;;;;55.42;5.47;;;17.30;99.90;;;;;;5054635;28;20093;-70
2022/12/10 01:06:14;;;;;;;52.08;5.40;;;17.20;99.90;;;;;;5054564;28;20047;-70
2022/12/10 01:08:42;;;;;;;49.00;5.32;;;17.20;99.90;;;;;;5058389;28;20107;-70
2022/12/10 01:11:10;;;;;;;41.10;5.40;;;17.20;99.90;;;;;;5056959;28;20041;-70
2022/12/10 01:13:36;;;;;;;33.97;5.03;;;17.30;99.90;;;;;;5068621;28;20029;-70
2022/12/10 01:16:07;;;;;;;43.33;5.45;;;17.30;99.90;;;;;;5074371;28;20043;-71
2022/12/10 01:18:34;;;;;;;39.33;4.80;;;17.30;99.90;;;;;;5074595;28;20020;-70
2022/12/10 01:21:07;;;;;;;;;;;17.30;99.90;;;;;;5074742;28;20025;-70
2022/12/10 01:23:39;;;;;;;49.63;5.63;;;17.30;99.90;;;;;;5074705;28;19910;-70
2022/12/10 01:26:11;;;;;;;47.72;5.28;;;17.30;99.90;;;;;;5073962;28;20037;-70
2022/12/10 01:28:39;;;;;;;32.08;4.80;;;17.30;99.90;;;;;;5073186;28;20334;-70
2022/12/10 01:31:09;;;;;;;39.95;6.00;;;17.20;99.90;;;;;;5054221;28;20044;-69
2022/12/10 01:33:37;;;;;;;35.88;5.00;;;17.20;99.90;;;;;;5054306;28;20025;-69
2022/12/10 01:36:14;;;;;;;33.53;4.53;;;17.20;99.90;;;;;;5054745;28;20043;-68
2022/12/10 01:38:40;;;;;;;32.47;4.32;;;17.20;99.90;;;;;;5054662;28;20016;-69
2022/12/10 01:41:14;;;;;;;38.65;4.70;;;17.20;99.90;;;;;;5054444;28;20021;-70
2022/12/10 01:44:02;;;;;;;40.13;4.93;;;17.20;99.90;;;;;;5054303;28;20025;-70
2022/12/10 01:46:32;;;;;;;34.67;5.03;;;17.20;99.90;;;;;;5054340;28;20029;-70
2022/12/10 01:49:00;;;;;;;39.40;4.25;;;17.20;99.90;;;;;;5054237;28;20031;-70
2022/12/10 01:51:29;;;;;;;43.97;6.13;;;17.20;99.90;;;;;;5052551;28;20080;-69
2022/12/10 01:54:01;;;;;;;27.90;4.68;;;17.20;99.90;;;;;;5053748;28;20013;-70
2022/12/10 01:56:28;;;;;;;34.22;4.82;;;17.20;99.90;;;;;;5036611;28;20398;-70
2022/12/10 01:58:56;;;;;;;41.92;4.53;;;17.20;99.90;;;;;;5053710;28;20025;-70
2022/12/10 02:01:52;;;;;;;44.83;6.13;;;17.20;99.90;;;;;;5052488;28;20044;-70
2022/12/10 02:04:29;;;;;;;40.50;5.35;;;17.30;99.90;;;;;;5053876;28;20131;-68
2022/12/10 02:07:26;;;;;;;39.20;5.28;;;17.30;99.90;;;;;;5071211;28;20051;-69
2022/12/10 02:10:23;;;;;;;42.30;5.50;;;17.30;99.90;;;;;;5071587;28;20047;-70
2022/12/10 02:13:18;;;;;;;35.78;4.63;;;17.30;99.90;;;;;;5071044;28;20033;-70
2022/12/10 02:15:51;;;;;;;47.85;5.15;;;17.30;99.90;;;;;;5071023;28;20042;-70
2022/12/10 02:18:37;;;;;;;31.60;4.95;;;17.30;99.90;;;;;;5071297;28;20457;-70
2022/12/10 02:21:29;;;;;;;42.97;5.22;;;17.30;99.90;;;;;;5054217;28;20025;-70
2022/12/10 02:24:03;;;;;;;33.78;5.40;;;17.30;99.90;;;;;;5070920;28;20044;-69
2022/12/10 02:26:52;;;;;;;40.47;5.40;;;17.30;99.90;;;;;;5070774;28;20094;-70
2022/12/10 02:29:22;;;;;;;40.15;4.63;;;17.30;99.90;;;;;;5068687;28;20132;-70
2022/12/10 02:31:56;;;;;;;38.38;5.78;;;17.30;99.90;;;;;;5069297;28;20035;-69
2022/12/10 02:34:27;;;;;;;42.28;5.72;;;17.30;99.90;;;;;;5069256;28;20487;-71
2022/12/10 02:36:55;;;;;;;34.78;5.03;;;17.30;99.90;;;;;;5052839;28;20037;-70
2022/12/10 02:39:29;;;;;;;50.60;5.53;;;17.20;99.90;;;;;;5052784;28;20138;-70
2022/12/10 02:41:58;;;;;;;42.75;5.07;;;17.20;99.90;;;;;;5053197;28;20494;-70
2022/12/10 02:44:31;;;;;;;34.92;5.05;;;17.20;99.90;;;;;;5052878;28;20021;-70
2022/12/10 02:46:59;;;;;;;40.20;5.10;;;17.20;99.90;;;;;;5053103;28;20120;-70
2022/12/10 02:49:27;;;;;;;38.67;5.90;;;17.10;99.90;;;;;;5051087;28;20472;-71
2022/12/10 02:51:54;;;;;;;40.83;5.60;;;17.20;99.90;;;;;;5052615;28;20135;-70
2022/12/10 02:54:48;;;;;;;39.67;5.20;;;17.20;99.90;;;;;;5052645;28;20493;-70
2022/12/10 02:57:26;;;;;;;44.35;5.22;;;17.20;99.90;;;;;;5052937;28;20028;-70
2022/12/10 03:00:04;;;;;;;33.00;4.60;;;17.20;99.90;;;;;;5052927;28;20029;-70
2022/12/10 03:02:55;;;;;;;38.38;5.13;;;17.10;99.90;;;;;;5052600;28;20025;-70
2022/12/10 03:05:38;;;;;;;36.05;5.55;;;17.10;99.90;;;;;;5052698;28;20021;-69
2022/12/10 03:08:38;;;;;;;42.38;5.10;;;17.10;99.90;;;;;;5052597;28;20029;-69
2022/12/10 03:11:10;;;;;;;41.65;5.47;;;17.10;99.90;;;;;;5046362;28;20059;-69
2022/12/10 03:13:43;;;;;;;38.05;5.40;;;17.00;99.90;;;;;;5051430;28;20025;-69
2022/12/10 03:16:11;;;;;;;31.98;5.20;;;17.00;99.90;;;;;;5052404;28;20037;-68
2022/12/10 03:18:38;;;;;;;39.83;5.40;;;17.10;99.90;;;;;;5051978;28;20041;-70
2022/12/10 03:21:06;;;;;;;31.40;4.28;;;17.10;99.90;;;;;;5051945;28;20115;-70
2022/12/10 03:23:37;;;;;;;34.20;4.60;;;17.10;99.90;;;;;;5049330;28;20364;-70
2022/12/10 03:26:05;;;;;;;37.47;4.88;;;17.10;99.90;;;;;;5032167;28;20067;-70
2022/12/10 03:28:37;;;;;;;35.00;4.80;;;17.10;99.90;;;;;;5031968;28;20032;-70
2022/12/10 03:31:08;;;;;;;35.05;4.28;;;17.10;99.90;;;;;;5049633;28;20520;-71
2022/12/10 03:33:34;;;;;;;29.00;4.40;;;17.00;99.90;;;;;;5052135;28;20079;-70
2022/12/10 03:36:00;;;;;;;33.45;4.20;;;17.10;99.90;;;;;;5051961;28;20063;-70
2022/12/10 03:38:29;;;;;;;46.78;6.03;;;17.10;99.90;;;;;;5051798;28;20036;-70
2022/12/10 03:40:59;;;;;;;44.30;5.85;;;17.10;99.90;;;;;;5052024;28;20025;-70
2022/12/10 03:43:26;;;;;;;41.10;4.43;;;17.20;99.90;;;;;;5051908;28;20377;-69
2022/12/10 03:45:53;;;;;;;39.38;4.78;;;17.10;99.90;;;;;;5050049;28;20040;-70
2022/12/10 03:48:19;;;;;;;38.47;4.60;;;17.10;99.90;;;;;;5051964;28;20099;-70
2022/12/10 03:50:45;;;;;;;37.03;4.80;;;17.10;99.90;;;;;;5051309;28;20178;-69
2022/12/10 03:53:11;;;;;;;51.50;5.27;;;17.00;99.90;;;;;;5051370;28;20282;-70
2022/12/10 03:55:38;;;;;;;35.70;4.93;;;17.10;99.90;;;;;;5049492;28;20637;-69
2022/12/10 03:58:04;;;;;;;44.05;5.20;;;17.00;99.90;;;;;;5050191;28;20033;-70
2022/12/10 04:00:32;;;;;;;33.88;4.68;;;17.00;99.90;;;;;;5051619;28;20036;-70
2022/12/10 04:02:58;;;;;;;;;;;17.00;99.90;;;;;;5050509;28;20027;-71
2022/12/10 04:05:26;;;;;;;34.70;5.05;;;17.00;99.90;;;;;;5050560;28;19924;-70
2022/12/10 04:07:54;;;;;;;44.03;5.63;;;17.00;99.90;;;;;;5052471;28;20036;-70
2022/12/10 04:10:21;;;;;;;37.08;5.13;;;17.00;99.90;;;;;;5052358;28;20393;-70
2022/12/10 04:16:26;;;;;;;37.03;5.18;;;17.00;99.90;;;;;;5052082;28;20482;-70
2022/12/10 04:18:17;;;;;;;37.42;4.95;;;17.00;99.90;;;;;;5052089;28;20043;-70
2022/12/10 04:28:56;;;;;;;30.48;4.72;;;17.00;99.90;;;;;;5052526;28;20444;-70
2022/12/10 04:31:28;;;;;;;38.15;5.50;;;17.00;99.90;;;;;;5057479;28;20051;-71
2022/12/10 04:33:54;;;;;;;41.70;5.03;;;17.00;99.90;;;;;;5073060;28;20052;-70
2022/12/10 04:36:20;;;;;;;40.85;4.97;;;17.00;99.90;;;;;;5072595;28;20097;-70
2022/12/10 04:38:46;;;;;;;38.83;5.47;;;17.00;99.90;;;;;;5072464;28;20460;-70
2022/12/10 04:41:15;;;;;;;47.45;5.53;;;17.00;99.90;;;;;;5072597;28;20027;-70
2022/12/10 04:43:42;;;;;;;40.88;4.80;;;17.00;99.90;;;;;;5072650;28;20032;-71
2022/12/10 04:46:12;;;;;;;48.78;6.25;;;17.00;99.90;;;;;;5072391;28;20099;-69
2022/12/10 04:48:38;;;;;;;35.35;4.88;;;17.00;99.90;;;;;;5072416;28;20030;-69
2022/12/10 04:51:05;;;;;;;41.03;5.18;;;17.00;99.90;;;;;;5072314;28;20048;-69
2022/12/10 04:53:31;;;;;;;40.60;4.97;;;17.10;99.90;;;;;;5072786;28;20017;-69
2022/12/10 04:55:57;;;;;;;31.03;4.77;;;17.00;99.90;;;;;;5072647;28;20111;-69
2022/12/10 04:58:23;;;;;;;43.33;5.20;;;17.00;99.90;;;;;;5072749;28;20255;-70
2022/12/10 05:00:49;;;;;;;36.75;5.75;;;17.00;99.90;;;;;;5072329;28;20275;-70
2022/12/10 05:03:15;;;;;;;44.78;6.10;;;17.00;99.90;;;;;;5072286;28;20504;-71
2022/12/10 05:05:42;;;;;;;54.38;6.18;;;17.00;99.90;;;;;;5070993;28;20032;-72
2022/12/10 05:08:08;;;;;;;37.25;5.60;;;16.90;99.90;;;;;;5070886;28;20460;-69
2022/12/10 05:10:35;;;;;;;41.70;5.93;;;16.90;99.90;;;;;;5072234;28;20040;-71
2022/12/10 05:13:02;;;;;;;30.63;5.45;;;16.90;99.90;;;;;;5070968;28;20380;-71
2022/12/10 05:15:28;;;;;;;49.90;6.55;;;16.90;99.90;;;;;;5072059;28;20154;-71
2022/12/10 05:17:56;;;;;;;46.53;5.57;;;16.90;99.90;;;;;;5072627;28;20032;-71
2022/12/10 05:20:22;;;;;;;40.70;6.32;;;16.80;99.90;;;;;;5072669;28;20029;-71
2022/12/10 05:26:00;;;;;;;37.20;4.85;;;16.80;99.90;;;;;;5072655;28;20093;-71
2022/12/10 05:28:26;;;;;;;38.88;4.97;;;16.80;99.90;;;;;;5072407;28;20028;-70
2022/12/10 05:30:54;;;;;;;40.17;5.57;;;16.80;99.90;;;;;;5072417;28;20072;-71
2022/12/10 05:33:21;;;;;;;38.05;4.65;;;16.80;99.90;;;;;;5071197;28;20076;-71
2022/12/10 05:35:58;;;;;;;38.80;5.95;;;16.70;99.90;;;;;;5073014;28;20056;-71
2022/12/10 05:38:24;;;;;;;36.70;5.32;;;16.70;99.90;;;;;;5075315;28;20017;-71
2022/12/10 05:40:51;;;;;;;38.83;6.05;;;16.80;99.90;;;;;;5076005;28;20024;-71
2022/12/10 05:43:17;;;;;;;37.85;5.03;;;16.80;99.90;;;;;;5075896;28;20021;-71
2022/12/10 05:45:44;;;;;;;34.40;4.65;;;16.70;99.90;;;;;;5075844;28;20056;-71
2022/12/10 05:48:12;;;;;;;44.10;5.57;;;16.70;99.90;;;;;;5075886;28;20103;-71
2022/12/10 05:50:38;;;;;;;36.25;4.55;;;16.70;99.90;;;;;;5072377;28;20064;-71
2022/12/10 05:53:07;;;;;;;35.70;4.65;;;16.80;99.90;;;;;;5066635;28;20025;-71
2022/12/10 05:55:35;;;;;;;43.45;5.53;;;16.80;99.90;;;;;;5073949;28;20036;-71
2022/12/10 05:58:01;;;;;;;41.17;5.90;;;16.70;99.90;;;;;;5075046;28;20098;-71
2022/12/10 06:00:28;;;;;;;35.35;5.30;;;16.70;99.90;;;;;;5074300;28;20044;-65
2022/12/10 06:02:54;;;;;;;41.33;5.60;;;16.70;99.90;;;;;;5075430;28;20028;-68
2022/12/10 06:05:21;;;;;;;39.72;4.68;;;16.70;99.90;;;;;;5075492;28;20032;-70
2022/12/10 06:07:47;;;;;;;37.35;5.35;;;16.70;99.90;;;;;;5066457;28;20029;-70
2022/12/10 06:10:13;;;;;;;36.22;4.55;;;16.70;99.90;;;;;;5068147;28;20494;-70
2022/12/10 06:12:40;;;;;;;35.47;4.90;;;16.60;99.90;;;;;;5068718;28;20476;-71
2022/12/10 06:15:07;;;;;;;36.25;4.82;;;16.60;99.90;;;;;;5068752;28;20366;-70
2022/12/10 06:17:33;;;;;;;32.97;4.60;;;16.60;99.90;;;;;;5055306;28;20048;-71
2022/12/10 06:19:59;;;;;;;32.53;5.30;;;16.60;99.90;;;;;;5071128;28;20392;-71
2022/12/10 06:22:25;;;;;;;33.47;5.33;;;16.70;99.90;;;;;;5075211;28;20271;-71
2022/12/10 06:24:51;;;;;;;34.13;4.30;;;16.70;99.90;;;;;;5075623;28;20267;-71
2022/12/10 06:27:18;;;;;;;40.65;5.60;;;16.70;99.90;;;;;;5075129;28;20107;-70
2022/12/10 06:29:45;;;;;;;;;;;16.80;99.90;;;;;;5065464;28;20056;-72
2022/12/10 06:32:11;;;;;;;35.70;4.63;;;17.00;99.90;;;;;;5054473;28;19905;-71
2022/12/10 06:34:38;;;;;;;34.40;4.57;;;17.20;99.90;;;;;;5052996;28;20040;-71
2022/12/10 06:37:04;;;;;;;;;;;17.30;99.90;;;;;;5059078;28;20027;-71
2022/12/10 06:39:32;;;;;;;35.20;5.25;;;17.30;99.90;;;;;;5075025;28;19971;-71
2022/12/10 06:42:03;;;;;;;36.25;4.43;;;17.30;99.90;;;;;;5074135;28;20037;-71
2022/12/10 06:44:29;;;;;;;25.00;5.43;;;17.10;99.90;;;;;;5073276;28;20035;-73
2022/12/10 06:46:56;;;;;;;29.45;5.20;;;17.10;99.90;;;;;;5072950;28;20028;-71
2022/12/10 06:49:23;;;;;;;28.05;4.15;;;17.10;99.90;;;;;;5074287;28;20383;-73
2022/12/10 06:51:49;;;;;;;33.55;5.10;;;17.20;99.90;;;;;;5074427;28;20123;-73
2022/12/10 06:54:21;;;;;;;34.45;5.05;;;17.10;99.90;;;;;;5073802;28;20103;-72
2022/12/10 06:56:47;;;;;;;32.65;4.82;;;17.10;99.90;;;;;;5074087;28;20024;-75
2022/12/10 06:59:15;;;;;;;37.40;4.65;;;17.10;99.90;;;;;;5073381;28;20075;-73
2022/12/10 07:01:41;;;;;;;27.75;5.10;;;17.20;99.90;;;;;;5071842;28;20039;-73
2022/12/10 07:04:09;;;;;;;26.17;4.20;;;17.30;99.90;;;;;;5073533;28;20024;-73
2022/12/10 07:06:35;;;;;;;40.92;5.00;;;17.40;99.90;;;;;;5072899;28;20459;-73
2022/12/10 07:09:01;;;;;;;37.25;4.22;;;17.40;99.90;;;;;;5073424;28;20021;-72
2022/12/10 07:11:27;;;;;;;31.55;4.25;;;17.40;99.90;;;;;;5072825;28;20040;-73
2022/12/10 07:13:53;;;;;;;28.35;4.00;;;17.60;99.90;;;;;;5073464;28;20021;-73
2022/12/10 07:16:25;;;;;;;37.67;4.20;;;17.70;99.90;;;;;;5073175;28;20063;-73
2022/12/10 07:18:54;;;;;;;37.28;4.50;;;17.70;99.90;;;;;;5073136;28;20115;-74
2022/12/10 07:21:25;;;;;;;31.08;4.85;;;17.70;99.90;;;;;;5070981;28;20496;-74
2022/12/10 07:23:57;;;;;;;37.28;4.80;;;17.80;99.90;;;;;;5072932;28;20123;-73
2022/12/10 07:26:24;;;;;;;28.30;4.18;;;17.80;99.90;;;;;;5072870;28;20035;-73
2022/12/10 07:28:51;;;;;;;27.40;3.88;;;17.90;99.90;;;;;;5071789;28;20033;-75
2022/12/10 07:31:17;;;;;;;30.75;4.75;;;18.10;99.90;;;;;;5072801;28;20087;-74
2022/12/10 07:33:43;;;;;;;31.38;3.92;;;18.10;99.90;;;;;;5072827;28;20028;-79
2022/12/10 07:36:11;;;;;;;30.60;4.03;;;18.00;99.90;;;;;;5071315;28;20028;-76
2022/12/10 07:38:38;;;;;;;31.10;4.47;;;18.10;99.90;;;;;;5072909;28;20021;-77
2022/12/10 07:41:10;;;;;;;23.30;3.70;;;18.20;99.90;;;;;;5072316;28;20033;-75
2022/12/10 07:43:39;;;;;;;31.70;4.10;;;18.30;99.90;;;;;;5072546;28;20016;-78
2022/12/10 07:46:09;;;;;;;27.55;4.30;;;18.30;99.90;;;;;;5072497;28;20026;-76
2022/12/10 07:48:59;;;;;;;26.08;4.32;;;18.30;99.90;;;;;;5072949;28;20032;-76
2022/12/10 07:51:26;;;;;;;29.48;4.72;;;18.30;99.90;;;;;;5072450;28;20036;-73
2022/12/10 07:53:54;;;;;;;21.05;3.85;;;18.30;99.90;;;;;;5072441;28;20034;-74
2022/12/10 07:56:22;;;;;;;31.15;4.55;;;18.20;99.90;;;;;;5072634;28;20021;-73
2022/12/10 07:58:48;;;;;;;29.73;4.03;;;18.20;99.90;;;;;;5071305;28;20058;-74
2022/12/10 08:01:22;;;;;;;26.75;4.00;;;18.10;99.90;;;;;;5071784;28;20025;-74
2022/12/10 08:03:48;;;;;;;23.33;3.63;;;18.20;99.90;;;;;;5072245;28;20029;-74
2022/12/10 08:06:16;;;;;;;;;;;18.20;99.90;;;;;;5072828;28;20017;-74
2022/12/10 08:08:43;;;;;;;21.92;3.67;;;18.30;99.90;;;;;;5071013;28;19911;-74
2022/12/10 08:11:10;;;;;;;28.33;4.75;;;18.30;99.90;;;;;;5072719;28;20367;-75
2022/12/10 08:13:36;;;;;;;32.30;4.47;;;18.30;99.90;;;;;;5072335;28;20099;-74
2022/12/10 08:16:07;;;;;;;30.48;4.55;;;18.20;99.90;;;;;;5072530;28;20067;-76
2022/12/10 08:18:34;;;;;;;27.70;4.95;;;18.00;99.90;;;;;;5072411;28;20017;-75
2022/12/10 08:21:07;;;;;;;30.15;4.30;;;17.90;99.90;;;;;;5072264;28;20021;-74
2022/12/10 08:23:33;;;;;;;28.42;4.68;;;17.90;99.90;;;;;;5072651;28;20413;-71
2022/12/10 08:26:06;;;;;;;28.35;4.38;;;17.80;99.90;;;;;;5072304;28;20021;-70
2022/12/10 08:28:33;;;;;;;24.95;4.80;;;17.80;99.90;;;;;;5072352;28;20490;-71
2022/12/10 08:30:59;;;;;;;36.25;4.28;;;17.80;99.90;;;;;;5070574;28;20140;-72
2022/12/10 08:33:26;;;;;;;29.25;4.85;;;17.70;99.90;;;;;;5070772;28;20025;-69
2022/12/10 08:35:56;;;;;;;33.42;4.45;;;17.80;99.90;;;;;;5072064;28;20044;-71
2022/12/10 08:38:22;;;;;;;31.88;5.13;;;17.80;99.90;;;;;;5072267;28;20020;-71
2022/12/10 08:40:48;;;;;;;34.95;5.05;;;17.70;99.90;;;;;;5071970;28;20495;-70
2022/12/10 08:43:16;;;;;;;28.80;5.43;;;17.70;99.90;;;;;;5072645;28;20075;-69
2022/12/10 08:45:42;;;;;;;32.85;4.50;;;17.60;99.90;;;;;;5071929;28;20029;-69
2022/12/10 08:48:08;;;;;;;38.70;5.40;;;17.70;99.90;;;;;;5072400;28;20142;-69
2022/12/10 08:50:34;;;;;;;38.53;4.97;;;17.70;99.90;;;;;;5071510;28;20085;-70
2022/12/10 08:53:00;;;;;;;29.25;4.75;;;17.70;99.90;;;;;;5071473;28;20025;-69
2022/12/10 08:55:26;;;;;;;32.80;5.60;;;17.70;99.90;;;;;;5071218;28;20032;-69
2022/12/10 08:57:53;;;;;;;35.42;4.68;;;17.70;99.90;;;;;;5062264;28;20087;-69
2022/12/10 09:00:19;;;;;;;31.20;4.50;;;17.70;99.90;;;;;;5063032;28;20036;-68
2022/12/10 09:02:47;;;;;;;40.05;4.78;;;17.80;99.90;;;;;;5049909;28;20025;-69
2022/12/10 09:05:13;;;;;;;35.15;5.35;;;17.70;99.90;;;;;;5068083;28;20020;-70
2022/12/10 09:07:42;;;;;;;37.50;4.93;;;17.70;99.90;;;;;;5071252;28;20036;-69
2022/12/10 09:10:11;;;;;;;39.50;5.25;;;17.70;99.90;;;;;;5071011;28;20449;-70
2022/12/10 09:12:38;;;;;;;34.15;4.78;;;17.70;99.90;;;;;;5071486;28;20028;-70
2022/12/10 09:15:08;;;;;;;25.65;4.68;;;17.70;99.90;;;;;;5074911;28;20032;-70
2022/12/10 09:17:35;;;;;;;27.95;4.15;;;17.70;99.90;;;;;;5073753;28;20052;-70
2022/12/10 09:20:01;;;;;;;29.55;4.45;;;17.70;99.90;;;;;;5058098;28;20028;-71
2022/12/10 09:22:29;;;;;;;36.13;5.07;;;17.70;99.90;;;;;;5055400;28;20115;-70
2022/12/10 09:24:55;;;;;;;27.17;4.50;;;17.80;99.90;;;;;;5055430;28;20021;-69
2022/12/10 09:27:22;;;;;;;47.85;6.28;;;17.80;99.90;;;;;;5055415;28;20111;-69
2022/12/10 09:29:47;;;;;;;;;;;17.80;99.90;;;;;;5053773;28;20076;-70
2022/12/10 09:32:15;;;;;;;32.88;5.03;;;17.80;99.90;;;;;;5054938;28;20042;-70
2022/12/10 09:34:42;;;;;;;44.67;4.97;;;17.70;99.90;;;;;;5055021;28;20032;-70
2022/12/10 09:37:08;;;;;;;32.53;4.57;;;17.70;99.90;;;;;;5065931;28;20473;-69
2022/12/10 09:39:34;;;;;;;24.50;4.18;;;17.70;99.90;;;;;;5074843;28;20153;-69
2022/12/10 09:42:26;;;;;;;36.78;4.90;;;17.70;99.90;;;;;;5073955;28;20036;-70
2022/12/10 09:45:10;;;;;;;35.92;4.60;;;17.70;99.90;;;;;;5075024;28;20465;-70
2022/12/10 09:48:00;;;;;;;33.05;4.90;;;17.70;99.90;;;;;;5075331;28;20104;-69
2022/12/10 09:51:09;;;;;;;35.47;5.10;;;17.80;99.90;;;;;;5074877;28;20067;-69
2022/12/10 09:53:40;;;;;;;31.25;4.93;;;17.80;99.90;;;;;;5012123;28;20390;-69
2022/12/10 09:56:17;;;;;;;34.33;5.18;;;17.80;99.90;;;;;;5012479;28;20398;-69
2022/12/10 09:58:44;;;;;;;39.33;5.30;;;17.80;99.90;;;;;;5012452;28;20026;-70
2022/12/10 10:01:14;;;;;;;44.78;4.70;;;17.80;99.90;;;;;;4995854;28;20199;-70
2022/12/10 10:03:42;;;;;;;34.40;5.75;;;17.80;99.90;;;;;;5012670;28;20079;-70
2022/12/10 10:06:15;;;;;;;34.00;4.80;;;17.80;99.90;;;;;;5012499;28;20473;-69
2022/12/10 10:08:46;;;;;;;33.92;5.07;;;17.80;99.90;;;;;;5012166;28;20406;-70
2022/12/10 10:11:22;;;;;;;42.78;6.10;;;17.80;99.90;;;;;;5012283;28;20121;-70
2022/12/10 10:14:20;;;;;;;41.03;6.13;;;17.70;99.90;;;;;;5012190;28;20394;-69
2022/12/10 10:16:55;;;;;;;32.15;5.93;;;17.70;99.90;;;;;;5006855;28;20065;-69
2022/12/10 10:19:34;;;;;;;41.45;8.48;;;17.80;99.90;;;;;;5012597;28;20475;-69
2022/12/10 10:22:00;;;;;;;51.85;8.48;;;17.80;99.90;;;;;;5011814;28;20068;-68
2022/12/10 10:24:39;;;;;;;50.20;7.38;;;17.80;99.90;;;;;;5011226;28;20033;-67
2022/12/10 10:27:22;;;;;;;33.55;8.10;;;17.80;99.90;;;;;;5010021;28;20034;-68
2022/12/10 10:29:54;;;;;;;40.05;7.20;;;17.80;99.90;;;;;;5059227;28;20118;-68
2022/12/10 10:32:24;;;;;;;32.90;6.75;;;17.80;99.90;;;;;;5072466;28;20047;-65
2022/12/10 10:35:00;;;;;;;40.00;6.80;;;17.80;99.90;;;;;;5072180;28;20039;-68
2022/12/10 10:37:35;;;;;;;36.65;5.97;;;17.80;99.90;;;;;;5073655;28;20062;-67
2022/12/10 10:40:01;;;;;;;40.60;5.95;;;17.90;99.90;;;;;;5074010;28;20021;-64
2022/12/10 10:42:38;;;;;;;36.65;5.60;;;17.90;99.90;;;;;;5071204;28;20049;-69
2022/12/10 10:45:06;;;;;;;;;;;17.90;99.90;;;;;;5062698;28;20360;-69
2022/12/10 10:47:36;;;;;;;32.25;4.90;;;17.90;99.90;;;;;;5072287;28;19908;-69
2022/12/10 10:50:07;;;;;;;34.45;4.30;;;17.80;99.90;;;;;;5070588;28;20127;-63
2022/12/10 10:52:38;;;;;;;35.10;4.65;;;17.90;99.90;;;;;;5071007;28;20093;-70
2022/12/10 10:55:06;;;;;;;35.85;4.53;;;17.80;99.90;;;;;;5071989;28;20069;-68
2022/12/10 10:57:38;;;;;;;26.50;4.32;;;17.80;99.90;;;;;;5073159;28;20036;-70
2022/12/10 11:00:18;;;;;;;29.38;5.28;;;17.70;99.90;;;;;;5073186;28;20432;-69
2022/12/10 11:02:45;;;;;;;29.65;4.57;;;17.70;99.90;;;;;;5072965;28;20436;-70
2022/12/10 11:05:20;;;;;;;29.10;4.80;;;17.70;99.90;;;;;;5071547;28;20137;-69
2022/12/10 11:07:47;;;;;;;35.03;4.85;;;17.70;99.90;;;;;;5073091;28;20043;-71
2022/12/10 11:10:23;;;;;;;;;;;17.80;99.90;;;;;;5071718;28;20029;-69
2022/12/10 11:13:20;;;;;;;38.22;5.63;;;17.70;99.90;;;;;;5072582;28;19965;-69
2022/12/10 11:15:55;;;;;;;32.15;4.93;;;17.70;99.90;;;;;;5071832;28;20463;-69
2022/12/10 11:18:26;;;;;;;30.10;4.65;;;17.60;99.90;;;;;;5072347;28;20091;-69
2022/12/10 11:20:58;;;;;;;35.08;4.45;;;17.60;99.90;;;;;;5071057;28;20081;-69
2022/12/10 11:23:29;;;;;;;36.53;5.10;;;17.50;99.90;;;;;;5072277;28;20065;-69
2022/12/10 11:26:02;;;;;;;40.13;5.32;;;17.50;99.90;;;;;;5072323;28;20032;-69
2022/12/10 11:28:59;;;;;;;34.50;5.05;;;17.50;99.90;;;;;;5070920;28;20020;-68
2022/12/10 11:32:07;;;;;;;33.33;5.47;;;17.40;99.90;;;;;;5072389;28;20044;-69
2022/12/10 11:35:10;;;;;;;28.15;3.83;;;17.20;99.90;;;;;;5072021;28;20090;-69
2022/12/10 11:37:38;;;;;;;18.85;2.85;;;17.00;99.90;;;;;;5065964;28;20037;-65
2022/12/10 11:40:34;;;;;;;;;;;16.70;99.90;;;;;;5053893;28;20025;-70
2022/12/10 11:42:59;;;;;;;;;;;16.50;99.90;;;;;;5031012;28;19990;-69
2022/12/10 11:45:47;;;;;;;17.38;1.92;;;16.20;99.90;;;;;;5030092;28;19909;-69
2022/12/10 11:48:27;;;;;;;;;;;16.20;99.90;;;;;;5030894;28;20449;-69
2022/12/10 11:51:09;;;;;;;20.98;2.05;;;16.10;99.90;;;;;;5029781;28;19913;-69
2022/12/10 11:53:41;;;;;;;9.20;1.40;;;16.10;99.90;;;;;;5029501;28;20037;-69
2022/12/10 11:56:28;;;;;;;13.85;1.60;;;16.00;99.90;;;;;;5013470;28;20492;-69
2022/12/10 11:59:14;;;;;;;15.88;1.90;;;15.90;99.90;;;;;;5013464;28;20512;-69
2022/12/10 12:01:58;;;;;;;;;;;15.90;99.90;;;;;;5030688;28;20079;-70
2022/12/10 12:04:45;;;;;;;13.93;2.25;;;15.90;99.90;;;;;;5029433;28;20303;-70
2022/12/10 12:07:26;;;;;;;9.55;1.60;;;15.90;99.90;;;;;;5030094;28;20506;-69
2022/12/10 12:10:28;;;;;;;16.02;2.20;;;15.80;99.90;;;;;;5030002;28;20029;-69
2022/12/10 12:13:08;;;;;;;10.25;1.80;;;15.80;99.90;;;;;;5030383;28;20513;-69
2022/12/10 12:15:43;;;;;;;13.45;1.60;;;15.80;99.90;;;;;;5029793;28;20025;-69
2022/12/10 12:18:21;;;;;;;15.73;1.70;;;15.80;99.90;;;;;;5030521;28;20378;-69
2022/12/10 12:21:02;;;;;;;10.65;1.60;;;15.80;99.90;;;;;;5053002;28;20037;-72
2022/12/10 12:23:36;;;;;;;19.80;2.53;;;15.80;99.90;;;;;;5053037;28;20063;-73
2022/12/10 12:26:24;;;;;;;11.52;1.80;;;15.80;99.90;;;;;;5052604;28;20021;-74
2022/12/10 12:29:01;;;;;;;14.68;1.80;;;15.90;99.90;;;;;;5052701;28;20028;-72
2022/12/10 12:31:59;;;;;;;10.65;1.38;;;15.90;99.90;;;;;;5067505;28;20059;-73
2022/12/10 12:34:39;;;;;;;11.68;1.60;;;16.00;99.90;;;;;;5068655;28;20094;-72
2022/12/10 12:37:08;;;;;;;13.18;1.60;;;16.00;99.90;;;;;;5069582;28;20020;-72
2022/12/10 12:39:47;;;;;;;9.25;1.42;;;16.10;99.90;;;;;;5072259;28;20382;-73
2022/12/10 12:42:38;;;;;;;14.52;1.83;;;16.20;99.90;;;;;;5072934;28;20025;-68
2022/12/10 12:45:13;;;;;;;9.65;1.70;;;16.20;99.90;;;;;;5072588;28;20483;-73
2022/12/10 12:48:18;;;;;;;16.65;2.25;;;16.20;99.90;;;;;;5076325;28;20039;-72
2022/12/10 12:50:49;;;;;;;8.25;1.50;;;16.20;99.90;;;;;;5034030;28;20077;-74
2022/12/10 12:53:19;;;;;;;12.15;2.03;;;16.20;99.90;;;;;;5001450;28;20075;-73
2022/12/10 12:56:06;;;;;;;10.30;1.40;;;16.20;99.90;;;;;;5034075;28;20025;-72
2022/12/10 12:58:48;;;;;;;16.52;1.75;;;16.20;99.90;;;;;;5034539;28;20079;-73
2022/12/10 13:01:20;;;;;;;10.63;1.83;;;16.20;99.90;;;;;;5034096;28;20069;-73
2022/12/10 13:03:48;;;;;;;13.88;2.63;;;16.10;99.90;;;;;;5034620;28;20407;-72
2022/12/10 13:06:17;;;;;;;14.10;1.77;;;16.10;99.90;;;;;;5017997;28;20490;-74
2022/12/10 13:08:49;;;;;;;15.43;1.60;;;16.00;99.90;;;;;;5034594;28;20057;-73
2022/12/10 13:11:35;;;;;;;8.98;1.60;;;16.20;99.90;;;;;;5033878;28;20077;-73
2022/12/10 13:14:10;;;;;;;10.98;1.63;;;16.20;99.90;;;;;;5034273;28;20448;-73
2022/12/10 13:16:45;;;;;;;11.93;1.67;;;16.20;99.90;;;;;;5033829;28;20548;-73
2022/12/10 13:19:20;;;;;;;12.32;2.10;;;16.10;99.90;;;;;;5017721;28;20036;-73